createdAt,value
2018-02-14T00:01:01.844Z,2.97
2018-02-14T00:03:29.429Z,2.90
2018-02-14T00:05:58.610Z,2.70
2018-02-14T00:08:26.928Z,3.10
2018-02-14T00:10:54.492Z,2.77
2018-02-14T00:13:22.061Z,2.73
2018-02-14T00:15:49.623Z,2.70
2018-02-14T00:18:17.273Z,2.80
2018-02-14T00:20:44.843Z,3.00
2018-02-14T00:23:12.402Z,2.90
2018-02-14T00:25:39.959Z,2.37
2018-02-14T00:28:07.535Z,2.93
2018-02-14T00:30:35.214Z,2.80
2018-02-14T00:33:02.769Z,2.63
2018-02-14T00:35:30.437Z,2.47
2018-02-14T00:37:57.991Z,2.73
2018-02-14T00:40:25.622Z,2.40
2018-02-14T00:42:53.204Z,2.40
2018-02-14T00:45:21.528Z,2.70
2018-02-14T00:47:49.066Z,2.87
2018-02-14T00:50:16.643Z,2.83
2018-02-14T00:52:44.206Z,3.10
2018-02-14T00:55:11.790Z,2.73
2018-02-14T00:57:39.343Z,2.33
2018-02-14T01:00:06.924Z,2.30
2018-02-14T01:02:34.479Z,2.50
2018-02-14T01:05:02.045Z,2.67
2018-02-14T01:07:29.640Z,2.33
2018-02-14T01:09:57.207Z,2.60
2018-02-14T01:12:24.779Z,2.50
2018-02-14T01:14:52.342Z,2.67
2018-02-14T01:17:19.902Z,2.53
2018-02-14T01:19:47.473Z,2.33
2018-02-14T01:22:15.200Z,2.67
2018-02-14T01:24:42.762Z,3.10
2018-02-14T01:27:10.327Z,2.57
2018-02-14T01:29:37.954Z,2.70
2018-02-14T01:32:05.527Z,2.60
2018-02-14T01:34:33.082Z,2.87
2018-02-14T01:37:00.665Z,2.73
2018-02-14T01:39:28.206Z,2.60
2018-02-14T01:41:55.791Z,2.80
2018-02-14T01:44:23.435Z,2.87
2018-02-14T01:46:51.014Z,2.80
2018-02-14T01:49:18.563Z,2.63
2018-02-14T01:51:46.124Z,2.60
2018-02-14T01:54:13.780Z,2.60
2018-02-14T01:56:41.355Z,2.43
2018-02-14T01:59:08.913Z,2.50
2018-02-14T02:01:36.522Z,2.70
2018-02-14T02:04:04.047Z,2.77
2018-02-14T02:06:31.618Z,2.60
2018-02-14T02:08:59.205Z,2.50
2018-02-14T02:11:26.766Z,2.70
2018-02-14T02:13:54.326Z,3.03
2018-02-14T02:16:21.882Z,2.80
2018-02-14T02:18:49.443Z,2.97
2018-02-14T02:21:17.031Z,2.70
2018-02-14T02:23:44.701Z,2.80
2018-02-14T02:26:12.317Z,3.20
2018-02-14T02:28:39.903Z,2.30
2018-02-14T02:31:07.442Z,2.40
2018-02-14T02:33:35.115Z,2.60
2018-02-14T02:36:02.670Z,2.70
2018-02-14T02:38:30.996Z,2.63
2018-02-14T02:40:58.577Z,2.67
2018-02-14T02:43:27.117Z,3.00
2018-02-14T02:45:54.751Z,3.13
2018-02-14T02:48:23.108Z,3.10
2018-02-14T02:50:50.668Z,2.50
2018-02-14T02:53:18.272Z,2.77
2018-02-14T02:55:46.605Z,2.50
2018-02-14T02:58:14.547Z,2.60
2018-02-14T03:00:42.855Z,2.67
2018-02-14T03:03:10.402Z,2.63
2018-02-14T03:05:37.974Z,2.43
2018-02-14T03:08:05.578Z,2.93
2018-02-14T03:10:33.157Z,2.67
2018-02-14T03:13:00.707Z,2.50
2018-02-14T03:15:28.274Z,2.40
2018-02-14T03:17:55.831Z,2.67
2018-02-14T03:20:23.391Z,2.17
2018-02-14T03:22:50.974Z,2.70
2018-02-14T03:25:18.519Z,2.53
2018-02-14T03:27:46.069Z,2.80
2018-02-14T03:30:13.645Z,2.90
2018-02-14T03:32:41.206Z,2.83
2018-02-14T03:35:08.799Z,2.60
2018-02-14T03:37:36.358Z,2.33
2018-02-14T03:40:03.926Z,2.67
2018-02-14T03:42:31.510Z,2.30
2018-02-14T03:44:59.178Z,2.57
2018-02-14T03:47:26.752Z,2.77
2018-02-14T03:49:54.309Z,2.37
2018-02-14T03:52:21.880Z,2.60
2018-02-14T03:54:49.484Z,2.80
2018-02-14T03:57:17.042Z,2.73
2018-02-14T03:59:45.399Z,2.70
2018-02-14T04:02:12.962Z,2.53
2018-02-14T04:04:40.507Z,2.50
2018-02-14T04:07:08.075Z,2.87
2018-02-14T04:09:35.635Z,2.50
2018-02-14T04:12:03.231Z,2.70
2018-02-14T04:14:30.791Z,3.10
2018-02-14T04:16:58.344Z,2.83
2018-02-14T04:19:25.913Z,2.50
2018-02-14T04:21:53.483Z,2.50
2018-02-14T04:24:21.054Z,2.40
2018-02-14T04:26:48.611Z,2.87
2018-02-14T04:29:16.165Z,2.73
2018-02-14T04:31:43.758Z,2.80
2018-02-14T04:34:12.084Z,2.77
2018-02-14T04:36:39.772Z,2.63
2018-02-14T04:39:07.359Z,2.67
2018-02-14T04:41:34.920Z,2.83
2018-02-14T04:44:02.499Z,3.00
2018-02-14T04:46:30.056Z,2.70
2018-02-14T04:48:57.697Z,2.60
2018-02-14T04:51:25.257Z,2.93
2018-02-14T04:53:52.828Z,2.90
2018-02-14T04:56:20.394Z,2.73
2018-02-14T04:58:47.953Z,2.90
2018-02-14T05:01:15.511Z,2.80
2018-02-14T05:03:43.070Z,2.70
2018-02-14T05:06:10.651Z,2.63
2018-02-14T05:08:38.205Z,3.00
2018-02-14T05:11:05.773Z,3.07
2018-02-14T05:13:33.328Z,2.77
2018-02-14T05:16:00.898Z,3.33
2018-02-14T05:18:28.460Z,4.20
2018-02-14T05:20:56.025Z,3.00
2018-02-14T05:23:23.594Z,2.70
2018-02-14T05:25:51.260Z,2.83
2018-02-14T05:28:18.809Z,2.90
2018-02-14T05:30:46.392Z,2.70
2018-02-14T05:33:13.966Z,2.63
2018-02-14T05:35:41.531Z,2.80
2018-02-14T05:38:09.093Z,2.90
2018-02-14T05:40:36.698Z,3.57
2018-02-14T05:43:04.255Z,4.87
2018-02-14T05:45:31.826Z,11.87
2018-02-14T05:48:00.166Z,14.90
2018-02-14T05:50:27.797Z,22.93
2018-02-14T05:52:55.354Z,26.70
2018-02-14T05:55:22.910Z,46.73
2018-02-14T05:57:50.634Z,53.23
2018-02-14T06:00:18.180Z,48.67
2018-02-14T06:02:46.504Z,45.70
2018-02-14T06:05:14.081Z,49.17
2018-02-14T06:07:42.417Z,44.00
2018-02-14T06:10:09.992Z,46.50
2018-02-14T06:12:37.597Z,46.50
2018-02-14T06:15:05.177Z,48.57
2018-02-14T06:17:32.758Z,44.43
2018-02-14T06:20:00.364Z,44.57
2018-02-14T06:22:27.934Z,43.70
2018-02-14T06:24:55.652Z,52.30
2018-02-14T06:27:23.252Z,34.63
2018-02-14T06:29:51.573Z,40.43
2018-02-14T06:32:19.264Z,39.40
2018-02-14T06:34:46.831Z,39.47
2018-02-14T06:37:14.397Z,33.60
2018-02-14T06:39:42.021Z,40.90
2018-02-14T06:42:09.578Z,33.50
2018-02-14T06:44:38.065Z,32.93
2018-02-14T06:47:05.730Z,31.80
2018-02-14T06:49:33.290Z,28.60
2018-02-14T06:52:00.851Z,30.30
2018-02-14T06:54:28.587Z,24.77
2018-02-14T06:56:56.162Z,27.37
2018-02-14T06:59:23.731Z,23.50
2018-02-14T07:01:51.319Z,26.40
2018-02-14T07:04:18.877Z,20.53
2018-02-14T07:06:47.215Z,23.27
2018-02-14T07:09:14.786Z,22.17
2018-02-14T07:11:42.376Z,24.93
2018-02-14T07:14:09.950Z,25.33
2018-02-14T07:16:38.290Z,21.53
2018-02-14T07:19:05.858Z,23.63
2018-02-14T07:21:33.415Z,18.73
2018-02-14T07:24:00.994Z,22.37
2018-02-14T07:26:28.564Z,16.83
2018-02-14T07:28:56.126Z,17.93
2018-02-14T07:31:23.685Z,18.00
2018-02-14T07:33:51.260Z,16.27
2018-02-14T07:36:18.986Z,16.67
2018-02-14T07:38:46.867Z,14.30
2018-02-14T07:41:14.793Z,14.87
2018-02-14T07:43:42.346Z,17.03
2018-02-14T07:46:10.067Z,13.37
2018-02-14T07:48:37.614Z,16.17
2018-02-14T07:51:05.937Z,15.77
2018-02-14T07:53:33.500Z,11.73
2018-02-14T07:56:01.117Z,14.23
2018-02-14T07:58:29.532Z,12.00
2018-02-14T08:00:57.081Z,13.60
2018-02-14T08:03:25.406Z,11.73
2018-02-14T08:05:52.969Z,11.33
2018-02-14T08:08:20.530Z,14.77
2018-02-14T08:10:48.075Z,11.03
2018-02-14T08:13:15.632Z,6.63
2018-02-14T08:15:43.215Z,9.93
2018-02-14T08:18:10.777Z,9.77
2018-02-14T08:20:38.338Z,9.17
2018-02-14T08:23:05.916Z,9.50
2018-02-14T08:25:33.484Z,10.43
2018-02-14T08:28:01.046Z,8.10
2018-02-14T08:30:28.616Z,6.83
2018-02-14T08:32:56.187Z,9.97
2018-02-14T08:35:23.748Z,6.07
2018-02-14T08:37:51.468Z,9.67
2018-02-14T08:40:19.025Z,8.60
2018-02-14T08:42:46.577Z,8.47
2018-02-14T08:45:14.158Z,9.23
2018-02-14T08:47:41.703Z,7.20
2018-02-14T08:50:09.273Z,5.27
2018-02-14T08:52:36.862Z,9.03
2018-02-14T08:55:05.176Z,5.40
2018-02-14T08:57:32.729Z,6.43
2018-02-14T09:00:00.300Z,6.67
2018-02-14T09:02:27.850Z,6.20
2018-02-14T09:04:56.172Z,6.63
2018-02-14T09:07:23.750Z,7.77
2018-02-14T09:09:51.308Z,6.63
2018-02-14T09:12:18.873Z,6.17
2018-02-14T09:14:46.912Z,5.73
2018-02-14T09:17:15.245Z,5.13
2018-02-14T09:19:42.918Z,5.30
2018-02-14T09:22:10.483Z,6.80
2018-02-14T09:24:38.048Z,4.80
2018-02-14T09:27:06.368Z,5.10
2018-02-14T09:29:34.710Z,7.23
2018-02-14T09:32:02.256Z,9.20
2018-02-14T09:34:29.811Z,10.17
2018-02-14T09:36:57.442Z,14.03
2018-02-14T09:39:24.966Z,13.20
2018-02-14T09:41:52.512Z,9.03
2018-02-14T09:44:20.091Z,6.93
2018-02-14T09:46:47.670Z,10.00
2018-02-14T09:49:15.231Z,8.40
2018-02-14T09:51:42.802Z,5.67
2018-02-14T09:54:10.399Z,6.57
2018-02-14T09:56:37.958Z,6.57
2018-02-14T09:59:05.533Z,5.53
2018-02-14T10:01:34.016Z,6.63
2018-02-14T10:04:01.611Z,4.17
2018-02-14T10:06:29.196Z,4.57
2018-02-14T10:08:56.764Z,5.03
2018-02-14T10:11:24.384Z,4.83
2018-02-14T10:13:51.957Z,4.53
2018-02-14T10:16:20.288Z,4.07
2018-02-14T10:18:47.862Z,4.30
2018-02-14T10:21:15.790Z,5.03
2018-02-14T10:23:44.118Z,4.03
2018-02-14T10:26:11.682Z,4.97
2018-02-14T10:28:39.236Z,3.70
2018-02-14T10:31:06.794Z,3.20
2018-02-14T10:33:34.365Z,4.17
2018-02-14T10:36:01.943Z,6.30
2018-02-14T10:38:29.526Z,24.73
2018-02-14T10:40:57.083Z,9.47
2018-02-14T10:43:24.704Z,5.07
2018-02-14T10:45:52.238Z,8.50
2018-02-14T10:48:19.799Z,5.00
2018-02-14T10:50:47.796Z,4.23
2018-02-14T10:53:16.163Z,3.40
2018-02-14T10:55:43.771Z,3.50
2018-02-14T10:58:11.409Z,3.67
2018-02-14T11:00:45.236Z,3.90
2018-02-14T11:06:35.080Z,3.87
2018-02-14T11:09:02.673Z,3.33
2018-02-14T11:11:31.074Z,3.47
2018-02-14T11:13:58.656Z,3.10
2018-02-14T11:16:26.230Z,4.43
2018-02-14T11:18:53.876Z,7.10
2018-02-14T11:21:21.433Z,3.43
2018-02-14T11:23:49.000Z,3.27
2018-02-14T11:26:16.573Z,3.03
2018-02-14T11:28:44.131Z,2.97
2018-02-14T11:31:11.702Z,2.73
2018-02-14T11:33:39.248Z,3.27
2018-02-14T11:36:06.817Z,4.30
2018-02-14T11:38:35.166Z,3.60
2018-02-14T11:41:02.734Z,4.47
2018-02-14T11:43:30.293Z,4.00
2018-02-14T11:45:57.850Z,4.23
2018-02-14T11:48:25.390Z,4.83
2018-02-14T11:50:52.948Z,3.93
2018-02-14T11:53:20.513Z,6.50
2018-02-14T11:55:48.087Z,5.00
2018-02-14T11:58:15.650Z,3.00
2018-02-14T12:00:43.221Z,3.53
2018-02-14T12:03:10.800Z,3.80
2018-02-14T12:05:38.353Z,3.67
2018-02-14T12:08:05.919Z,3.27
2018-02-14T12:10:33.476Z,6.60
2018-02-14T12:13:01.042Z,7.77
2018-02-14T12:15:28.637Z,7.30
2018-02-14T12:17:56.183Z,3.30
2018-02-14T12:20:23.740Z,3.63
2018-02-14T12:22:51.327Z,4.30
2018-02-14T12:25:18.878Z,3.40
2018-02-14T12:27:46.445Z,3.23
2018-02-14T12:30:14.033Z,3.63
2018-02-14T12:32:41.612Z,3.83
2018-02-14T12:35:09.179Z,4.20
2018-02-14T12:37:36.737Z,3.30
2018-02-14T12:40:04.324Z,3.73
2018-02-14T12:42:31.875Z,2.80
2018-02-14T12:44:59.425Z,3.23
2018-02-14T12:47:26.991Z,5.67
2018-02-14T12:49:54.541Z,2.87
2018-02-14T12:52:22.121Z,10.70
2018-02-14T12:54:49.673Z,3.23
2018-02-14T12:57:17.242Z,5.07
2018-02-14T12:59:44.885Z,5.87
2018-02-14T13:02:12.476Z,4.93
2018-02-14T13:04:40.052Z,7.57
2018-02-14T13:07:07.615Z,3.93
2018-02-14T13:09:35.192Z,4.30
2018-02-14T13:12:02.775Z,3.10
2018-02-14T13:14:30.380Z,6.50
2018-02-14T13:16:57.967Z,15.83
2018-02-14T13:19:25.624Z,5.97
2018-02-14T13:21:53.182Z,4.80
2018-02-14T13:24:20.747Z,5.23
2018-02-14T13:26:48.312Z,10.40
2018-02-14T13:29:16.267Z,8.50
2018-02-14T13:31:44.592Z,8.13
2018-02-14T13:34:12.243Z,9.00
2018-02-14T13:36:39.800Z,7.43
2018-02-14T13:39:07.349Z,3.33
2018-02-14T13:41:35.684Z,4.47
2018-02-14T13:44:03.280Z,3.53
2018-02-14T13:46:30.829Z,5.37
2018-02-14T13:48:58.377Z,7.90
2018-02-14T13:51:25.938Z,6.57
2018-02-14T13:53:53.511Z,2.93
2018-02-14T13:56:21.200Z,2.53
2018-02-14T13:58:48.740Z,2.90
2018-02-14T14:01:16.269Z,2.77
2018-02-14T14:03:43.830Z,2.70
2018-02-14T14:06:12.203Z,3.57
2018-02-14T14:08:39.807Z,2.43
2018-02-14T14:11:07.365Z,2.77
2018-02-14T14:13:34.935Z,6.77
2018-02-14T14:16:02.507Z,5.60
2018-02-14T14:18:30.085Z,2.17
2018-02-14T14:20:57.670Z,4.20
2018-02-14T14:23:25.221Z,1.80
2018-02-14T14:25:52.785Z,2.83
2018-02-14T14:28:20.334Z,1.83
2018-02-14T14:30:48.151Z,2.40
2018-02-14T14:33:15.709Z,2.07
2018-02-14T14:35:43.272Z,7.87
2018-02-14T14:38:10.852Z,13.00
2018-02-14T14:40:39.179Z,7.43
2018-02-14T14:43:06.768Z,7.80
2018-02-14T14:45:34.318Z,9.10
2018-02-14T14:48:01.885Z,7.07
2018-02-14T14:50:29.446Z,6.20
2018-02-14T14:52:57.002Z,2.57
2018-02-14T14:55:24.585Z,4.47
2018-02-14T14:57:52.160Z,10.43
2018-02-14T15:00:19.797Z,9.10
2018-02-14T15:02:47.319Z,2.33
2018-02-14T15:05:14.874Z,9.60
2018-02-14T15:07:42.446Z,12.70
2018-02-14T15:10:10.005Z,6.80
2018-02-14T15:12:37.584Z,18.43
2018-02-14T15:15:05.149Z,17.63
2018-02-14T15:17:32.707Z,10.23
2018-02-14T15:20:00.274Z,8.13
2018-02-14T15:22:27.825Z,3.20
2018-02-14T15:24:55.393Z,8.83
2018-02-14T15:27:22.994Z,7.90
2018-02-14T15:29:50.566Z,16.93
2018-02-14T15:32:18.937Z,11.83
2018-02-14T15:34:46.505Z,13.90
2018-02-14T15:37:14.847Z,8.80
2018-02-14T15:39:42.398Z,7.63
2018-02-14T15:42:09.947Z,12.80
2018-02-14T15:44:37.516Z,12.43
2018-02-14T15:47:05.100Z,18.73
2018-02-14T15:49:32.652Z,11.87
2018-02-14T15:52:00.216Z,7.67
2018-02-14T15:54:27.775Z,17.30
2018-02-14T15:56:55.364Z,8.80
2018-02-14T15:59:22.929Z,14.30
2018-02-14T16:01:50.499Z,10.37
2018-02-14T16:04:18.021Z,20.33
2018-02-14T16:06:46.420Z,13.90
2018-02-14T16:09:15.095Z,9.93
2018-02-14T16:11:42.664Z,10.13
2018-02-14T16:14:10.250Z,13.03
2018-02-14T16:16:37.826Z,18.40
2018-02-14T16:19:05.479Z,16.47
2018-02-14T16:21:33.068Z,10.00
2018-02-14T16:24:00.628Z,13.70
2018-02-14T16:26:28.201Z,21.20
2018-02-14T16:28:55.785Z,22.40
2018-02-14T16:31:23.350Z,10.43
2018-02-14T16:33:50.949Z,14.30
2018-02-14T16:36:19.284Z,9.80
2018-02-14T16:38:46.872Z,18.33
2018-02-14T16:41:14.455Z,18.43
2018-02-14T16:43:42.033Z,11.90
2018-02-14T16:46:10.387Z,15.70
2018-02-14T16:48:37.994Z,9.80
2018-02-14T16:51:06.334Z,12.87
2018-02-14T16:53:33.880Z,14.23
2018-02-14T16:56:01.447Z,17.13
2018-02-14T16:58:29.027Z,8.30
2018-02-14T17:00:56.596Z,8.87
2018-02-14T17:03:24.257Z,9.60
2018-02-14T17:05:51.814Z,13.07
2018-02-14T17:08:19.374Z,6.43
2018-02-14T17:10:47.013Z,9.90
2018-02-14T17:13:14.581Z,5.43
2018-02-14T17:15:42.148Z,5.77
2018-02-14T17:18:09.725Z,8.80
2018-02-14T17:20:37.331Z,6.17
2018-02-14T17:23:04.980Z,3.87
2018-02-14T17:25:32.554Z,8.83
2018-02-14T17:28:00.118Z,7.77
2018-02-14T17:30:27.744Z,7.73
2018-02-14T17:32:55.304Z,5.00
2018-02-14T17:35:23.085Z,7.03
2018-02-14T17:37:50.746Z,5.73
2018-02-14T17:40:18.339Z,7.13
2018-02-14T17:42:45.957Z,7.77
2018-02-14T17:45:14.328Z,8.73
2018-02-14T17:47:41.904Z,5.57
2018-02-14T17:50:09.459Z,7.10
2018-02-14T17:52:37.033Z,5.67
2018-02-14T17:55:04.593Z,4.33
2018-02-14T17:57:32.194Z,4.10
2018-02-14T17:59:59.766Z,4.90
2018-02-14T18:02:27.322Z,4.27
2018-02-14T18:04:54.893Z,7.97
2018-02-14T18:07:22.484Z,6.20
2018-02-14T18:09:50.044Z,5.77
2018-02-14T18:12:17.629Z,4.20
2018-02-14T18:14:45.256Z,5.13
2018-02-14T18:17:12.816Z,4.67
2018-02-14T18:19:40.411Z,3.43
2018-02-14T18:22:07.955Z,11.27
2018-02-14T18:24:35.542Z,7.73
2018-02-14T18:27:03.176Z,19.43
2018-02-14T18:29:30.751Z,21.00
2018-02-14T18:31:58.336Z,13.43
2018-02-14T18:34:26.197Z,15.17
2018-02-14T18:36:53.658Z,11.83
2018-02-14T18:39:21.221Z,12.97
2018-02-14T18:41:48.889Z,11.93
2018-02-14T18:44:16.489Z,9.77
2018-02-14T18:46:44.080Z,12.63
2018-02-14T18:49:12.927Z,9.83
2018-02-14T18:51:40.490Z,12.70
2018-02-14T18:54:08.152Z,14.40
2018-02-14T18:56:35.841Z,15.20
2018-02-14T18:59:03.600Z,8.50
2018-02-14T19:01:31.243Z,9.03
2018-02-14T19:03:59.654Z,11.63
2018-02-14T19:06:27.259Z,8.37
2018-02-14T19:08:54.836Z,8.60
2018-02-14T19:11:23.181Z,7.73
2018-02-14T19:13:51.742Z,7.97
2018-02-14T19:16:19.306Z,7.63
2018-02-14T19:18:46.910Z,8.60
2018-02-14T19:21:14.505Z,12.80
2018-02-14T19:23:42.738Z,16.03
2018-02-14T19:26:10.433Z,16.27
2018-02-14T19:28:38.047Z,18.50
2018-02-14T19:31:06.486Z,16.10
2018-02-14T19:33:34.078Z,16.37
2018-02-14T19:36:02.470Z,12.67
2018-02-14T19:38:30.896Z,11.70
2018-02-14T19:40:58.499Z,11.80
2018-02-14T19:43:26.181Z,10.33
2018-02-14T19:45:53.795Z,10.57
2018-02-14T19:48:21.404Z,14.47
2018-02-14T19:50:49.022Z,10.03
2018-02-14T19:53:16.658Z,9.83
2018-02-14T19:55:45.169Z,9.30
2018-02-14T19:58:12.797Z,8.93
2018-02-14T20:00:40.464Z,9.20
2018-02-14T20:03:08.282Z,9.00
2018-02-14T20:05:35.889Z,8.50
2018-02-14T20:08:04.257Z,7.90
2018-02-14T20:10:32.613Z,39.03
2018-02-14T20:13:00.220Z,13.40
2018-02-14T20:15:27.841Z,9.50
2018-02-14T20:17:55.435Z,7.97
2018-02-14T20:20:23.025Z,10.47
2018-02-14T20:22:50.616Z,8.33
2018-02-14T20:25:18.985Z,10.37
2018-02-14T20:27:46.605Z,7.00
2018-02-14T20:30:14.176Z,9.40
2018-02-14T20:32:41.773Z,15.70
2018-02-14T20:35:09.393Z,28.00
2018-02-14T20:37:37.097Z,18.53
2018-02-14T20:40:04.718Z,16.70
2018-02-14T20:42:33.056Z,15.93
2018-02-14T20:45:03.526Z,14.10
2018-02-14T20:47:31.865Z,12.43
2018-02-14T20:49:59.447Z,12.17
2018-02-14T20:52:27.172Z,11.60
2018-02-14T20:54:55.743Z,11.00
2018-02-14T20:57:23.378Z,10.60
2018-02-14T20:59:50.964Z,10.67
2018-02-14T21:02:19.439Z,10.60
2018-02-14T21:04:47.007Z,9.70
2018-02-14T21:07:15.346Z,10.40
2018-02-14T21:09:43.027Z,10.83
2018-02-14T21:12:10.573Z,13.07
2018-02-14T21:14:38.151Z,13.40
2018-02-14T21:17:05.831Z,12.10
2018-02-14T21:19:33.391Z,10.17
2018-02-14T21:22:00.966Z,11.30
2018-02-14T21:24:28.601Z,10.23
2018-02-14T21:26:56.162Z,13.10
2018-02-14T21:29:24.070Z,11.57
2018-02-14T21:31:51.641Z,10.47
2018-02-14T21:34:19.227Z,9.37
2018-02-14T21:36:46.895Z,12.57
2018-02-14T21:39:15.260Z,10.03
2018-02-14T21:41:43.685Z,11.00
2018-02-14T21:44:11.255Z,11.47
2018-02-14T21:46:38.851Z,8.60
2018-02-14T21:49:06.427Z,9.77
2018-02-14T21:51:34.000Z,9.13
2018-02-14T21:54:01.622Z,8.67
2018-02-14T21:56:29.205Z,9.73
2018-02-14T21:58:56.758Z,9.03
2018-02-14T22:01:24.409Z,9.80
2018-02-14T22:03:52.755Z,8.63
2018-02-14T22:06:20.340Z,10.63
2018-02-14T22:08:47.906Z,9.13
2018-02-14T22:11:15.515Z,10.47
2018-02-14T22:13:43.088Z,10.70
2018-02-14T22:16:10.704Z,10.13
2018-02-14T22:18:38.596Z,7.90
2018-02-14T22:21:06.920Z,9.13
2018-02-14T22:23:34.509Z,9.33
2018-02-14T22:26:02.079Z,7.73
2018-02-14T22:28:29.652Z,8.10
2018-02-14T22:30:57.245Z,8.20
2018-02-14T22:33:24.815Z,7.80
2018-02-14T22:35:52.376Z,7.97
2018-02-14T22:38:20.702Z,6.83
2018-02-14T22:40:48.307Z,8.97
2018-02-14T22:43:16.698Z,7.73
2018-02-14T22:45:45.032Z,7.40
2018-02-14T22:48:12.627Z,7.70
2018-02-14T22:50:40.221Z,8.10
2018-02-14T22:53:08.539Z,8.27
2018-02-14T22:55:36.195Z,7.87
2018-02-14T22:58:04.588Z,7.70
2018-02-14T23:00:32.156Z,7.40
2018-02-14T23:02:59.823Z,9.30
2018-02-14T23:05:27.401Z,6.73
2018-02-14T23:07:54.990Z,7.60
2018-02-14T23:10:22.701Z,7.27
2018-02-14T23:12:50.264Z,8.70
2018-02-14T23:15:17.822Z,7.30
2018-02-14T23:17:46.159Z,9.70
2018-02-14T23:20:13.768Z,7.53
2018-02-14T23:22:42.106Z,7.13
2018-02-14T23:25:09.731Z,7.73
2018-02-14T23:27:37.322Z,6.57
2018-02-14T23:30:04.905Z,7.83
2018-02-14T23:32:33.651Z,6.40
2018-02-14T23:35:01.213Z,6.47
2018-02-14T23:37:29.534Z,7.07
2018-02-14T23:39:57.098Z,7.50
2018-02-14T23:42:24.666Z,6.50
2018-02-14T23:44:52.332Z,6.40
2018-02-14T23:47:19.887Z,7.07
2018-02-14T23:49:47.450Z,6.33
2018-02-14T23:52:15.010Z,6.83
2018-02-14T23:54:42.579Z,6.40
2018-02-14T23:57:10.167Z,6.13
2018-02-14T23:59:37.754Z,6.50
